Airport Name : Jeffco

Other Name : Jeffco

ICAO : KBJC

IATA :

FAA : BJC

Latitude : 39.908787

Longitude : -105.117217

Country : United States

Local Date and Time : 22 Sep 2020 12:24

 

TAF (Terminal Aerodrome Forecast)

KBJC 221721Z 2218/2318 08008KT P6SM FEW090 SCT150 BKN220 FM222100 23011KT P6SM VCSH SCT120 BKN220 TEMPO 2221/2301 VRB15G35KT FM230200 24005KT P6SM SCT120 BKN220 FM230600 28007KT P6SM BKN220 FM231600 32009KT P6SM FEW120 SCT220

 

METAR (METeorological Aerodrome Report)

KBJC 221750Z 14004KT 10SM SCT120 27/02 A3020

KBJC 221647Z 06006KT 10SM SCT120 24/02 A3022

KBJC 221547Z 11004KT 10SM SCT120 20/03 A3022

KBJC 221540Z 10004KT 10SM SCT120 20/04 A3022

KBJC 221455Z 00000KT 10SM SCT120 18/03 A3022

To Charter a Jet Click here.